Terminal Aerodrome Forecast
Issued by NWS

Home | Current Version | Previous Version | Text Only | Print | Product List | Glossary On
Versions: 1 2 3 4 5 6 7 8 9 10 11 12 13 14 15
055
FTUS41 KBTV 041727
TAFRUT
TAF
KRUT 041727Z 0418/0518 33007KT P6SM OVC025
     FM042100 02004KT P6SM BKN050
     FM050800 14004KT P6SM VCSH OVC070
     FM051000 14004KT 2SM -SN BR OVC060=

USA.gov is the U.S. government's official web portal to all federal, state and local government web resources and services.